Time;durP1;ratioP1;P1;durP2;ratioP2;P2;SDS_P1;SDS_P2;PMS_P1;PMS_P2;Temp;Humidity;BMP_temperature;BMP_pressure;BME280_temperature;BME280_humidity;BME280_pressure;Samples;Min_cycle;Max_cycle;Signal;HPM_P1;HPM_P2
2023/03/31 00:01:24;;;;;;;10.45;9.13;;;9.60;99.90;;;;;;4997982;28;20100;-76
2023/03/31 00:03:50;;;;;;;10.07;8.68;;;9.60;99.90;;;;;;4999251;28;20100;-75
2023/03/31 00:06:19;;;;;;;12.02;10.05;;;9.60;99.90;;;;;;4994729;28;20041;-73
2023/03/31 00:08:46;;;;;;;10.93;9.80;;;9.80;99.90;;;;;;4996388;28;20049;-72
2023/03/31 00:11:12;;;;;;;14.90;10.93;;;9.80;99.90;;;;;;4981309;28;20659;-73
2023/03/31 00:13:38;;;;;;;15.10;10.98;;;9.90;99.90;;;;;;4993309;28;20042;-73
2023/03/31 00:16:07;;;;;;;13.48;11.02;;;10.00;99.90;;;;;;4976973;28;20089;-72
2023/03/31 00:18:33;;;;;;;11.93;10.27;;;10.00;99.90;;;;;;4964221;28;20691;-79
2023/03/31 00:21:07;;;;;;;13.15;11.93;;;10.10;99.90;;;;;;4982933;28;20033;-74
2023/03/31 00:23:33;;;;;;;13.50;12.15;;;10.10;99.90;;;;;;4975641;28;20034;-72
2023/03/31 00:25:58;;;;;;;17.45;13.98;;;10.20;99.90;;;;;;4994226;28;20038;-72
2023/03/31 00:28:24;;;;;;;12.10;10.90;;;10.30;99.90;;;;;;4978286;28;20505;-71
2023/03/31 00:30:50;;;;;;;12.18;9.52;;;10.40;99.90;;;;;;4998569;28;20118;-73
2023/03/31 00:33:16;;;;;;;11.38;9.27;;;10.40;99.90;;;;;;5000112;28;20030;-73
2023/03/31 00:35:42;;;;;;;11.43;9.85;;;10.30;99.90;;;;;;4980474;28;20042;-75
2023/03/31 00:38:08;;;;;;;11.40;9.35;;;10.20;99.90;;;;;;4986282;28;20144;-75
2023/03/31 00:40:35;;;;;;;10.18;9.10;;;9.90;99.90;;;;;;4990251;28;20030;-75
2023/03/31 00:43:01;;;;;;;12.20;8.73;;;9.80;99.90;;;;;;4992149;28;20085;-74
2023/03/31 00:45:29;;;;;;;13.15;9.38;;;9.80;99.90;;;;;;4995244;28;20038;-75
2023/03/31 00:47:58;;;;;;;11.85;9.18;;;9.80;99.90;;;;;;4992501;28;20050;-75
2023/03/31 00:50:30;;;;;;;9.63;8.38;;;9.80;99.90;;;;;;4992070;28;22456;-76
2023/03/31 00:53:11;;;;;;;10.18;8.48;;;9.70;99.90;;;;;;4996061;28;20041;-74
2023/03/31 00:55:42;;;;;;;10.23;8.95;;;9.90;99.90;;;;;;4989035;28;20033;-76
2023/03/31 00:58:13;;;;;;;10.65;9.55;;;9.90;99.90;;;;;;4987418;28;20152;-75
2023/03/31 01:00:40;;;;;;;10.27;9.10;;;9.90;99.90;;;;;;4993737;28;20092;-75
2023/03/31 01:03:08;;;;;;;11.13;9.25;;;9.80;99.90;;;;;;4992132;28;20041;-75
2023/03/31 01:05:56;;;;;;;10.80;9.50;;;9.70;99.90;;;;;;4994752;28;20045;-76
2023/03/31 01:08:25;;;;;;;11.43;8.70;;;9.70;99.90;;;;;;4992995;28;20026;-76
2023/03/31 01:10:53;;;;;;;7.35;6.65;;;9.70;99.90;;;;;;4994699;28;20125;-77
2023/03/31 01:13:21;;;;;;;8.85;7.13;;;10.00;99.90;;;;;;4988787;28;20042;-82
2023/03/31 01:15:47;;;;;;;9.93;8.90;;;10.30;99.90;;;;;;4997388;28;20030;-78
2023/03/31 01:18:15;;;;;;;10.73;9.00;;;10.60;99.90;;;;;;4991605;28;20034;-81
2023/03/31 01:21:17;;;;;;;9.18;8.27;;;10.60;99.90;;;;;;4999219;28;20180;-80
2023/03/31 01:24:07;;;;;;;10.18;8.82;;;10.40;99.90;;;;;;5003640;28;20036;-81
2023/03/31 01:26:58;;;;;;;11.82;10.55;;;10.30;99.90;;;;;;5007127;28;20073;-79
2023/03/31 01:29:33;;;;;;;9.98;9.07;;;10.50;99.90;;;;;;5005390;28;20054;-84
2023/03/31 01:32:20;;;;;;;11.82;10.65;;;10.70;99.90;;;;;;5000810;28;20034;-78
2023/03/31 01:34:58;;;;;;;14.25;12.80;;;10.70;99.90;;;;;;5003436;28;20042;-78
2023/03/31 01:37:55;;;;;;;13.93;12.48;;;10.80;99.90;;;;;;5000915;28;20042;-76
2023/03/31 01:40:54;;;;;;;13.98;12.57;;;10.80;99.90;;;;;;5008522;28;20034;-80
2023/03/31 01:43:58;;;;;;;16.83;14.90;;;10.80;99.90;;;;;;5006236;28;20192;-79
2023/03/31 01:46:32;;;;;;;14.88;13.50;;;10.80;99.90;;;;;;4890103;29;20087;-67
2023/03/31 01:49:24;;;;;;;18.77;16.05;;;10.80;99.90;;;;;;4989293;28;20041;-68
2023/03/31 01:51:58;;;;;;;17.02;15.32;;;10.90;99.90;;;;;;5006552;28;20086;-80
2023/03/31 01:54:51;;;;;;;17.98;16.27;;;10.90;99.90;;;;;;5007339;28;20049;-81
2023/03/31 01:57:28;;;;;;;18.40;16.50;;;10.80;99.90;;;;;;4996060;28;20064;-78
2023/03/31 02:00:03;;;;;;;19.63;17.58;;;10.80;99.90;;;;;;5006640;28;20313;-81
2023/03/31 02:02:37;;;;;;;19.50;17.40;;;10.80;99.90;;;;;;5009079;28;20023;-78
2023/03/31 02:05:12;;;;;;;19.88;16.75;;;10.70;99.90;;;;;;5009644;28;20037;-78
2023/03/31 02:07:49;;;;;;;19.85;16.95;;;10.70;99.90;;;;;;5007158;28;20388;-78
2023/03/31 02:10:16;;;;;;;18.65;16.73;;;10.70;99.90;;;;;;5010865;28;20038;-78
2023/03/31 02:12:44;;;;;;;19.48;17.35;;;10.70;99.90;;;;;;5006908;28;20045;-80
2023/03/31 02:15:17;;;;;;;20.55;18.35;;;10.70;99.90;;;;;;5000288;28;20029;-77
2023/03/31 02:17:46;;;;;;;21.45;19.13;;;10.60;99.90;;;;;;4997517;28;20037;-77
2023/03/31 02:20:14;;;;;;;21.88;19.13;;;10.60;99.90;;;;;;4994107;28;20030;-76
2023/03/31 02:22:44;;;;;;;22.25;19.40;;;10.50;99.90;;;;;;4997248;28;20375;-79
2023/03/31 02:25:14;;;;;;;21.83;19.65;;;10.50;99.90;;;;;;4982404;28;20140;-78
2023/03/31 02:27:44;;;;;;;22.58;20.17;;;10.50;99.90;;;;;;5000931;28;20045;-78
2023/03/31 02:30:12;;;;;;;24.25;20.85;;;10.50;99.90;;;;;;4992805;28;20093;-78
2023/03/31 02:32:43;;;;;;;23.67;20.02;;;10.50;99.90;;;;;;4993501;28;20022;-79
2023/03/31 02:35:15;;;;;;;20.15;18.23;;;10.50;99.90;;;;;;4994114;28;20112;-80
2023/03/31 02:37:42;;;;;;;20.45;18.27;;;10.50;99.90;;;;;;4997951;28;20041;-78
2023/03/31 02:40:14;;;;;;;19.92;17.83;;;10.50;99.90;;;;;;4996145;28;20030;-79
2023/03/31 02:42:42;;;;;;;18.60;16.70;;;10.50;99.90;;;;;;4997668;28;20133;-78
2023/03/31 02:45:33;;;;;;;18.10;16.38;;;10.50;99.90;;;;;;4994480;28;20041;-78
2023/03/31 02:47:59;;;;;;;17.88;14.50;;;10.60;99.90;;;;;;4993957;28;20053;-78
2023/03/31 02:50:30;;;;;;;15.60;13.80;;;10.50;99.90;;;;;;4994002;28;20660;-79
2023/03/31 02:53:22;;;;;;;15.05;13.52;;;10.60;99.90;;;;;;5000852;28;20565;-78
2023/03/31 02:56:15;;;;;;;14.55;13.15;;;10.60;99.90;;;;;;4999160;28;20064;-78
2023/03/31 02:59:05;;;;;;;21.35;18.50;;;10.60;99.90;;;;;;4999977;28;20030;-74
2023/03/31 03:01:48;;;;;;;23.23;18.65;;;10.60;99.90;;;;;;4997178;28;20072;-74
2023/03/31 03:04:41;;;;;;;19.17;17.00;;;10.60;99.90;;;;;;4994724;28;20640;-74
2023/03/31 03:07:16;;;;;;;15.52;14.02;;;10.50;99.90;;;;;;4992073;28;20053;-67
2023/03/31 03:10:15;;;;;;;13.35;12.05;;;10.60;99.90;;;;;;5001642;28;20033;-68
2023/03/31 03:12:40;;;;;;;11.52;9.60;;;10.60;99.90;;;;;;4994608;28;20125;-68
2023/03/31 03:15:29;;;;;;;11.02;9.93;;;10.70;99.90;;;;;;4991916;28;20040;-68
2023/03/31 03:17:56;;;;;;;9.40;8.20;;;10.70;99.90;;;;;;4995056;28;20033;-68
2023/03/31 03:20:22;;;;;;;8.18;7.47;;;10.70;99.90;;;;;;4991043;28;20220;-68
2023/03/31 03:22:47;;;;;;;9.52;6.72;;;10.70;99.90;;;;;;4983621;28;20057;-74
2023/03/31 03:25:19;;;;;;;7.20;6.50;;;10.70;99.90;;;;;;4994985;28;20053;-67
2023/03/31 03:27:45;;;;;;;8.43;7.53;;;10.80;99.90;;;;;;4992344;28;20053;-68
2023/03/31 03:30:12;;;;;;;7.40;6.70;;;10.90;99.90;;;;;;4989521;28;20073;-67
2023/03/31 03:32:38;;;;;;;8.48;7.60;;;10.90;99.90;;;;;;4982351;28;20037;-68
2023/03/31 03:35:05;;;;;;;7.22;6.45;;;10.90;99.90;;;;;;4994061;28;20527;-68
2023/03/31 03:37:31;;;;;;;7.72;6.93;;;10.80;99.90;;;;;;4993517;28;20120;-68
2023/03/31 03:39:57;;;;;;;7.40;6.70;;;10.80;99.90;;;;;;4991297;28;20038;-68
2023/03/31 03:42:22;;;;;;;7.25;6.55;;;10.70;99.90;;;;;;4990417;28;20041;-67
2023/03/31 03:44:49;;;;;;;8.25;6.75;;;10.70;99.90;;;;;;4993282;28;20732;-68
2023/03/31 03:47:15;;;;;;;8.55;7.75;;;10.60;99.90;;;;;;4990634;28;20049;-68
2023/03/31 03:49:40;;;;;;;8.63;7.82;;;10.50;99.90;;;;;;4996005;28;20613;-68
2023/03/31 03:52:06;;;;;;;10.82;8.70;;;10.40;99.90;;;;;;4990220;28;20046;-68
2023/03/31 03:54:32;;;;;;;11.25;9.90;;;10.30;99.90;;;;;;4992729;28;20112;-67
2023/03/31 03:56:58;;;;;;;11.10;10.00;;;10.30;99.90;;;;;;4974866;28;20046;-67
2023/03/31 03:59:23;;;;;;;12.20;10.05;;;10.20;99.90;;;;;;4991090;28;20065;-68
2023/03/31 04:01:50;;;;;;;11.00;9.98;;;10.10;99.90;;;;;;4973911;28;21729;-67
2023/03/31 04:04:16;;;;;;;11.57;10.48;;;10.10;99.90;;;;;;4992973;28;20536;-67
2023/03/31 04:06:42;;;;;;;12.80;9.90;;;10.00;99.90;;;;;;4985209;28;20048;-68
2023/03/31 04:09:08;;;;;;;13.25;10.85;;;10.00;99.90;;;;;;4966066;28;21739;-68
2023/03/31 04:11:33;;;;;;;11.20;10.15;;;10.00;99.90;;;;;;4994148;28;20457;-68
2023/03/31 04:13:59;;;;;;;11.23;9.60;;;10.00;99.90;;;;;;4991089;28;20044;-68
2023/03/31 04:16:25;;;;;;;11.65;8.98;;;10.00;99.90;;;;;;4995217;28;20566;-68
2023/03/31 04:18:55;;;;;;;10.07;9.07;;;10.00;99.90;;;;;;4989109;28;20423;-68
2023/03/31 04:21:22;;;;;;;8.73;7.90;;;10.00;99.90;;;;;;4992460;28;20038;-68
2023/03/31 04:23:57;;;;;;;9.00;8.30;;;10.10;99.90;;;;;;4991161;28;20072;-68
2023/03/31 04:26:29;;;;;;;7.80;7.05;;;10.10;99.90;;;;;;4985020;28;20035;-68
2023/03/31 04:29:01;;;;;;;7.22;6.45;;;10.10;99.90;;;;;;4969793;28;20040;-67
2023/03/31 04:31:29;;;;;;;7.05;6.35;;;10.20;99.90;;;;;;4990191;28;20058;-67
2023/03/31 04:33:59;;;;;;;7.10;6.40;;;10.20;99.90;;;;;;4991997;28;20391;-68
2023/03/31 04:36:25;;;;;;;6.97;6.18;;;10.20;99.90;;;;;;4981200;28;20069;-67
2023/03/31 04:38:53;;;;;;;7.20;6.38;;;10.30;99.90;;;;;;4984811;28;20101;-76
2023/03/31 04:41:21;;;;;;;6.95;6.25;;;10.30;99.90;;;;;;4988405;28;20046;-74
2023/03/31 04:43:47;;;;;;;6.18;5.57;;;10.30;99.90;;;;;;4992918;28;20054;-74
2023/03/31 04:46:13;;;;;;;5.20;4.70;;;10.30;99.90;;;;;;4989120;28;20800;-73
2023/03/31 04:48:39;;;;;;;5.32;4.30;;;10.30;99.90;;;;;;4989908;28;20042;-73
2023/03/31 04:51:05;;;;;;;4.25;3.85;;;10.40;99.90;;;;;;4983623;28;20241;-73
2023/03/31 04:53:32;;;;;;;5.13;3.38;;;10.40;99.90;;;;;;4982901;28;20084;-72
2023/03/31 04:55:58;;;;;;;3.55;3.22;;;10.40;99.90;;;;;;4987208;28;20697;-73
2023/03/31 04:58:24;;;;;;;4.35;3.00;;;10.30;99.90;;;;;;4985233;28;20031;-67
2023/03/31 05:00:52;;;;;;;5.18;2.50;;;10.30;99.90;;;;;;4983833;28;20041;-67
2023/03/31 05:03:18;;;;;;;2.75;2.30;;;10.30;99.90;;;;;;4977556;28;20449;-67
2023/03/31 05:05:43;;;;;;;5.97;2.70;;;10.40;99.90;;;;;;4983758;28;20042;-67
2023/03/31 05:08:09;;;;;;;3.13;2.75;;;10.40;99.90;;;;;;4972253;28;20045;-68
2023/03/31 05:10:35;;;;;;;2.92;2.25;;;10.50;99.90;;;;;;4975264;28;20046;-66
2023/03/31 05:13:01;;;;;;;3.63;2.15;;;10.50;99.90;;;;;;4978579;28;20098;-67
2023/03/31 05:15:27;;;;;;;2.75;2.17;;;10.60;99.90;;;;;;4983492;28;20506;-67
2023/03/31 05:17:53;;;;;;;5.90;2.42;;;10.70;99.90;;;;;;4954224;28;20034;-67
2023/03/31 05:20:22;;;;;;;12.10;10.55;;;10.80;99.90;;;;;;4981479;28;20332;-66
2023/03/31 05:22:48;;;;;;;17.98;16.17;;;10.80;99.90;;;;;;4978508;28;20046;-66
2023/03/31 05:25:17;;;;;;;11.82;10.63;;;10.70;99.90;;;;;;4978454;28;20026;-65
2023/03/31 05:27:46;;;;;;;9.27;8.30;;;10.60;99.90;;;;;;4972326;28;20045;-65
2023/03/31 05:30:12;;;;;;;12.85;11.15;;;10.60;99.90;;;;;;4981424;28;20128;-66
2023/03/31 05:32:38;;;;;;;14.30;11.85;;;10.60;99.90;;;;;;4980993;28;20431;-66
2023/03/31 05:35:04;;;;;;;15.43;13.05;;;10.50;99.90;;;;;;4982020;28;20045;-71
2023/03/31 05:37:30;;;;;;;13.18;11.77;;;10.60;99.90;;;;;;4966534;28;20159;-68
2023/03/31 05:39:56;;;;;;;17.80;13.88;;;10.60;99.90;;;;;;4985678;28;20184;-68
2023/03/31 05:42:21;;;;;;;14.88;12.40;;;10.70;99.90;;;;;;4985938;28;20424;-67
2023/03/31 05:44:47;;;;;;;15.70;14.00;;;10.70;99.90;;;;;;4991373;28;20027;-68
2023/03/31 05:47:13;;;;;;;18.13;15.98;;;10.70;99.90;;;;;;4991481;28;20703;-67
2023/03/31 05:49:39;;;;;;;17.00;13.95;;;10.70;99.90;;;;;;4995133;28;20034;-67
2023/03/31 05:52:06;;;;;;;16.00;13.65;;;10.70;99.90;;;;;;4994502;28;20461;-67
2023/03/31 05:54:32;;;;;;;17.85;15.68;;;10.70;99.90;;;;;;4992660;28;20030;-67
2023/03/31 05:56:57;;;;;;;16.27;14.57;;;10.70;99.90;;;;;;4989636;28;20042;-71
2023/03/31 05:59:23;;;;;;;23.05;20.75;;;10.70;99.90;;;;;;4994580;28;20037;-71
2023/03/31 06:01:49;;;;;;;16.40;14.80;;;10.70;99.90;;;;;;4994703;28;20122;-71
2023/03/31 06:04:14;;;;;;;23.88;21.48;;;10.60;99.90;;;;;;4993831;28;20403;-71
2023/03/31 06:06:43;;;;;;;17.42;13.93;;;10.50;99.90;;;;;;4993434;28;20730;-70
2023/03/31 06:09:10;;;;;;;13.18;11.90;;;10.50;99.90;;;;;;4996139;28;20621;-71
2023/03/31 06:11:36;;;;;;;17.35;15.55;;;10.50;99.90;;;;;;4994071;28;20048;-71
2023/03/31 06:14:02;;;;;;;15.68;13.80;;;10.50;99.90;;;;;;4978603;28;20050;-71
2023/03/31 06:16:28;;;;;;;14.07;12.65;;;10.40;99.90;;;;;;4997604;28;20681;-71
2023/03/31 06:18:54;;;;;;;16.67;14.98;;;10.50;99.90;;;;;;4993253;28;20033;-71
2023/03/31 06:21:20;;;;;;;14.55;12.75;;;10.40;99.90;;;;;;4991730;28;20494;-71
2023/03/31 06:23:47;;;;;;;12.45;11.15;;;10.30;99.90;;;;;;4996036;28;20406;-70
2023/03/31 06:26:17;;;;;;;12.35;11.15;;;10.30;99.90;;;;;;4992173;28;20054;-71
2023/03/31 06:28:45;;;;;;;13.15;11.90;;;10.30;99.90;;;;;;4992135;28;20080;-71
2023/03/31 06:31:14;;;;;;;16.33;14.02;;;10.40;99.90;;;;;;4997762;28;20065;-71
2023/03/31 06:33:41;;;;;;;12.77;11.50;;;10.50;99.90;;;;;;4994357;28;20026;-71
2023/03/31 06:36:08;;;;;;;12.60;11.40;;;10.60;99.90;;;;;;4986174;28;20232;-70
2023/03/31 06:38:35;;;;;;;12.55;11.25;;;10.60;99.90;;;;;;4994844;28;20120;-70
2023/03/31 06:41:01;;;;;;;13.88;12.35;;;10.80;99.90;;;;;;4998729;28;20027;-70
2023/03/31 06:43:27;;;;;;;13.20;11.82;;;10.90;99.90;;;;;;5001095;28;20117;-70
2023/03/31 06:45:54;;;;;;;13.75;11.82;;;11.00;99.90;;;;;;4991733;28;20042;-71
2023/03/31 06:48:20;;;;;;;13.02;11.77;;;11.20;99.90;;;;;;4973065;28;20564;-72
2023/03/31 06:50:45;;;;;;;12.60;10.60;;;11.50;99.90;;;;;;4996830;28;20029;-72
2023/03/31 06:53:11;;;;;;;13.25;10.48;;;11.70;99.90;;;;;;4983173;28;20152;-68
2023/03/31 06:55:37;;;;;;;11.60;10.32;;;11.80;99.90;;;;;;4993887;28;20663;-67
2023/03/31 06:58:04;;;;;;;13.63;12.25;;;12.00;99.90;;;;;;4992790;28;20034;-67
2023/03/31 07:00:31;;;;;;;13.70;12.45;;;12.20;99.90;;;;;;4994429;28;20048;-68
2023/03/31 07:02:56;;;;;;;12.75;11.50;;;12.20;99.90;;;;;;4990793;28;20069;-67
2023/03/31 07:05:28;;;;;;;11.88;10.60;;;12.20;99.90;;;;;;4988993;28;20657;-68
2023/03/31 07:07:56;;;;;;;11.70;10.40;;;12.20;99.90;;;;;;4994298;28;20184;-68
2023/03/31 07:10:22;;;;;;;11.43;10.13;;;12.10;99.90;;;;;;4996586;28;20192;-68
2023/03/31 07:12:48;;;;;;;11.18;10.13;;;12.10;99.90;;;;;;4993738;28;20034;-67
2023/03/31 07:15:14;;;;;;;10.85;9.77;;;12.30;99.90;;;;;;4995870;28;20042;-68
2023/03/31 07:17:40;;;;;;;9.45;8.55;;;12.40;99.90;;;;;;4997114;28;20041;-67
2023/03/31 07:20:11;;;;;;;10.02;9.13;;;12.60;99.90;;;;;;4989251;28;20084;-68
2023/03/31 07:22:37;;;;;;;8.27;7.50;;;12.80;99.90;;;;;;4977560;28;20100;-68
2023/03/31 07:25:04;;;;;;;6.97;6.28;;;13.00;99.90;;;;;;4983864;28;20041;-68
2023/03/31 07:27:29;;;;;;;6.57;5.57;;;13.30;99.90;;;;;;4991948;28;20053;-68
2023/03/31 07:29:55;;;;;;;4.25;3.85;;;13.60;99.90;;;;;;4989830;28;20060;-69
2023/03/31 07:32:22;;;;;;;4.75;4.15;;;13.90;99.90;;;;;;4995267;28;20136;-68
2023/03/31 07:34:47;;;;;;;5.05;3.08;;;14.10;99.90;;;;;;4995850;28;20502;-69
2023/03/31 07:37:13;;;;;;;5.25;3.50;;;14.40;99.90;;;;;;4990866;28;20540;-68
2023/03/31 07:39:39;;;;;;;5.47;3.60;;;14.60;99.90;;;;;;4990857;28;20121;-78
2023/03/31 07:42:05;;;;;;;5.55;2.85;;;14.60;99.90;;;;;;4992562;28;20096;-68
2023/03/31 07:44:36;;;;;;;5.40;3.42;;;14.70;99.90;;;;;;4992461;28;20609;-68
2023/03/31 07:47:04;;;;;;;6.07;3.17;;;14.80;99.90;;;;;;4989352;28;20099;-69
2023/03/31 07:49:32;;;;;;;3.78;2.65;;;14.90;99.90;;;;;;4996814;28;20968;-69
2023/03/31 07:51:58;;;;;;;7.05;2.95;;;15.10;99.90;;;;;;4994974;28;20065;-69
2023/03/31 07:54:24;;;;;;;5.30;3.08;;;15.30;99.90;;;;;;4979067;28;20571;-68
2023/03/31 07:56:51;;;;;;;3.47;2.72;;;15.40;99.90;;;;;;4992490;28;20041;-68
2023/03/31 07:59:17;;;;;;;4.15;2.58;;;15.40;99.90;;;;;;4991651;28;20038;-68
2023/03/31 08:01:42;;;;;;;11.75;7.65;;;15.50;99.90;;;;;;5004445;28;20034;-68
2023/03/31 08:04:09;;;;;;;3.92;2.35;;;15.60;99.90;;;;;;4991463;28;20053;-68
2023/03/31 08:06:34;;;;;;;4.78;2.55;;;15.70;99.90;;;;;;4989510;28;20260;-68
2023/03/31 08:09:00;;;;;;;4.28;3.00;;;15.80;99.90;;;;;;4990819;28;20546;-68
2023/03/31 08:11:26;;;;;;;5.63;2.42;;;15.90;99.90;;;;;;4995461;28;20056;-71
2023/03/31 08:13:52;;;;;;;3.95;2.25;;;15.80;99.90;;;;;;4993140;28;20634;-71
2023/03/31 08:16:18;;;;;;;4.30;2.20;;;15.70;99.90;;;;;;4981038;28;20042;-73
2023/03/31 08:18:43;;;;;;;3.67;2.40;;;15.70;99.90;;;;;;4994260;28;20044;-73
2023/03/31 08:21:09;;;;;;;3.13;2.00;;;15.60;99.90;;;;;;4990249;28;20042;-72
2023/03/31 08:23:35;;;;;;;2.33;1.52;;;15.60;99.90;;;;;;4976409;28;20478;-74
2023/03/31 08:26:13;;;;;;;2.30;1.88;;;15.50;99.90;;;;;;4989280;28;20515;-73
2023/03/31 08:28:38;;;;;;;2.92;1.90;;;15.50;99.90;;;;;;4991166;28;20038;-69
2023/03/31 08:31:09;;;;;;;2.63;2.08;;;15.50;99.90;;;;;;4994542;28;20038;-68
2023/03/31 08:33:36;;;;;;;4.38;2.25;;;15.50;99.90;;;;;;4993788;28;20121;-68
2023/03/31 08:36:09;;;;;;;3.03;1.88;;;15.60;99.90;;;;;;4993111;28;20025;-68
2023/03/31 08:38:40;;;;;;;2.38;1.48;;;15.70;99.90;;;;;;4973097;28;20834;-68
2023/03/31 08:41:13;;;;;;;5.93;1.55;;;15.80;99.90;;;;;;4996345;28;20899;-68
2023/03/31 08:43:45;;;;;;;4.13;1.65;;;16.00;99.90;;;;;;4991171;28;20731;-68
2023/03/31 08:46:13;;;;;;;1.63;1.30;;;16.00;99.90;;;;;;4990562;28;20050;-69
2023/03/31 08:48:47;;;;;;;2.15;1.75;;;16.10;99.90;;;;;;4982944;28;20026;-69
2023/03/31 08:51:17;;;;;;;6.40;1.80;;;16.20;99.90;;;;;;4989866;28;20124;-69
2023/03/31 08:53:51;;;;;;;2.88;1.63;;;16.30;99.90;;;;;;4994145;28;20058;-68
2023/03/31 08:56:21;;;;;;;7.22;1.40;;;16.40;99.90;;;;;;4995589;28;20113;-68
2023/03/31 08:58:49;;;;;;;1.83;1.33;;;16.50;99.90;;;;;;4997318;28;20026;-68
2023/03/31 09:01:47;;;;;;;7.90;5.63;;;16.60;99.90;;;;;;4994439;28;20072;-68
2023/03/31 09:04:43;;;;;;;3.65;1.40;;;16.60;99.90;;;;;;4992812;28;20034;-68
2023/03/31 09:07:45;;;;;;;5.72;0.75;;;16.60;99.90;;;;;;4994908;28;20054;-67
2023/03/31 09:10:55;;;;;;;3.00;1.02;;;16.60;99.90;;;;;;4992784;28;20068;-68
2023/03/31 09:13:43;;;;;;;2.40;0.75;;;16.50;99.90;;;;;;4988852;28;20622;-68
2023/03/31 09:16:19;;;;;;;3.35;1.08;;;16.60;99.90;;;;;;4989648;28;20117;-67
2023/03/31 09:18:45;;;;;;;3.58;1.05;;;16.50;99.90;;;;;;4993463;28;20032;-68
2023/03/31 09:21:15;;;;;;;2.15;1.13;;;16.50;99.90;;;;;;4982613;28;20041;-68
2023/03/31 09:23:52;;;;;;;3.75;0.63;;;16.50;99.90;;;;;;4990951;28;20042;-68
2023/03/31 09:26:42;;;;;;;2.10;0.80;;;16.50;99.90;;;;;;4997392;28;20058;-68
2023/03/31 09:29:31;;;;;;;1.75;0.90;;;16.50;99.90;;;;;;4994210;28;20037;-72
2023/03/31 09:32:30;;;;;;;3.15;1.15;;;16.60;99.90;;;;;;4993520;28;20116;-72
2023/03/31 09:35:10;;;;;;;2.70;1.00;;;16.70;99.90;;;;;;4965855;28;20069;-71
2023/03/31 09:37:36;;;;;;;1.65;0.82;;;16.80;99.90;;;;;;4996583;28;20618;-72
2023/03/31 09:40:10;;;;;;;2.75;1.77;;;16.80;99.90;;;;;;4989744;28;20042;-71
2023/03/31 09:42:37;;;;;;;3.03;1.42;;;16.80;99.90;;;;;;4980289;28;20037;-72
2023/03/31 09:45:03;;;;;;;2.90;1.00;;;16.70;99.90;;;;;;4996861;28;20030;-72
2023/03/31 09:47:38;;;;;;;1.70;1.00;;;16.70;99.90;;;;;;4996177;28;20050;-73
2023/03/31 09:50:23;;;;;;;2.00;1.05;;;16.70;99.90;;;;;;4991965;28;20437;-71
2023/03/31 09:52:55;;;;;;;1.63;0.93;;;16.60;99.90;;;;;;4991203;28;20109;-74
2023/03/31 09:55:23;;;;;;;;;;;16.60;99.90;;;;;;4997497;28;20049;-73
2023/03/31 09:57:48;;;;;;;3.08;1.23;;;16.50;99.90;;;;;;4991294;28;19913;-73
2023/03/31 10:00:19;;;;;;;1.35;0.90;;;16.30;99.90;;;;;;4991958;28;20046;-73
2023/03/31 10:02:56;;;;;;;2.70;1.05;;;16.30;99.90;;;;;;4993928;28;20952;-73
2023/03/31 10:05:44;;;;;;;1.92;0.70;;;16.30;99.90;;;;;;4992163;28;20116;-68
2023/03/31 10:08:10;;;;;;;1.27;0.63;;;16.30;99.90;;;;;;4996719;28;21689;-68
2023/03/31 10:10:36;;;;;;;1.95;1.00;;;16.40;99.90;;;;;;4998634;28;20041;-68
2023/03/31 10:13:08;;;;;;;3.17;0.88;;;16.60;99.90;;;;;;4983856;28;20049;-68
2023/03/31 10:15:37;;;;;;;2.45;0.80;;;16.70;99.90;;;;;;4992684;28;20029;-69
2023/03/31 10:18:02;;;;;;;2.08;0.90;;;16.70;99.90;;;;;;4989876;28;20042;-69
2023/03/31 10:20:32;;;;;;;6.38;2.67;;;16.70;99.90;;;;;;4994890;28;20280;-69
2023/03/31 10:23:03;;;;;;;2.72;0.93;;;16.90;99.90;;;;;;4992258;28;20034;-70
2023/03/31 10:25:29;;;;;;;1.90;0.85;;;17.10;99.90;;;;;;4991241;28;20549;-72
2023/03/31 10:27:56;;;;;;;2.03;0.73;;;17.10;99.90;;;;;;4990589;28;20034;-72
2023/03/31 10:30:24;;;;;;;2.28;0.73;;;17.10;99.60;;;;;;4985183;28;20411;-72
2023/03/31 10:32:50;;;;;;;4.53;0.93;;;17.10;99.90;;;;;;4983227;28;20041;-73
2023/03/31 10:35:31;;;;;;;1.35;0.70;;;17.20;99.90;;;;;;4992031;28;20060;-71
2023/03/31 10:38:04;;;;;;;1.48;0.57;;;17.20;99.90;;;;;;4992152;28;20512;-72
2023/03/31 10:40:32;;;;;;;3.75;0.95;;;17.20;99.90;;;;;;4985548;28;20042;-72
2023/03/31 10:43:08;;;;;;;2.00;0.70;;;17.40;99.90;;;;;;4994021;28;20057;-71
2023/03/31 10:45:47;;;;;;;4.20;0.90;;;17.60;99.90;;;;;;4993529;28;20140;-70
2023/03/31 10:48:25;;;;;;;1.48;0.90;;;17.60;99.90;;;;;;4989519;28;20042;-70
2023/03/31 10:50:51;;;;;;;2.30;1.25;;;17.60;99.90;;;;;;4987972;28;20043;-70
2023/03/31 10:53:17;;;;;;;3.47;1.10;;;17.70;99.90;;;;;;4995406;28;20046;-70
2023/03/31 10:55:58;;;;;;;2.67;1.13;;;17.80;99.90;;;;;;4997225;28;20030;-71
2023/03/31 10:58:47;;;;;;;3.33;1.35;;;17.90;99.90;;;;;;4978067;28;20064;-71
2023/03/31 11:01:31;;;;;;;1.75;1.23;;;17.90;99.90;;;;;;4985406;28;20572;-69
2023/03/31 11:04:00;;;;;;;3.60;1.00;;;17.80;99.90;;;;;;4990499;28;20046;-69
2023/03/31 11:06:53;;;;;;;1.95;0.90;;;17.80;99.90;;;;;;4986325;28;20054;-70
2023/03/31 11:09:21;;;;;;;7.72;1.00;;;17.70;99.90;;;;;;4986831;28;20514;-68
2023/03/31 11:11:59;;;;;;;3.38;1.00;;;17.70;99.70;;;;;;4993386;28;20046;-69
2023/03/31 11:14:32;;;;;;;2.10;0.90;;;17.70;99.40;;;;;;4996560;28;20041;-69
2023/03/31 11:17:04;;;;;;;2.17;0.90;;;17.80;99.60;;;;;;4989678;28;20046;-69
2023/03/31 11:20:09;;;;;;;3.03;1.23;;;17.80;99.70;;;;;;4997111;28;20026;-69
2023/03/31 11:23:14;;;;;;;1.63;0.80;;;17.70;98.10;;;;;;4975898;28;20038;-69
2023/03/31 11:25:56;;;;;;;2.25;0.85;;;17.50;98.30;;;;;;4980099;28;20083;-68
2023/03/31 11:28:32;;;;;;;3.03;1.15;;;17.50;98.90;;;;;;4989735;28;20049;-69
2023/03/31 11:31:18;;;;;;;3.05;1.30;;;17.50;99.50;;;;;;4995997;28;20029;-69
2023/03/31 11:33:47;;;;;;;3.45;1.15;;;17.60;99.40;;;;;;4993371;28;20041;-69
2023/03/31 11:36:35;;;;;;;3.88;1.17;;;17.70;98.60;;;;;;4993336;28;20526;-69
2023/03/31 11:39:07;;;;;;;4.55;1.20;;;17.70;97.80;;;;;;4996250;28;20047;-70
2023/03/31 11:41:32;;;;;;;2.30;1.10;;;17.70;97.50;;;;;;4995823;28;20046;-69
2023/03/31 11:44:03;;;;;;;2.88;1.30;;;17.60;98.10;;;;;;4991642;28;20056;-69
2023/03/31 11:46:48;;;;;;;3.00;1.23;;;17.50;98.00;;;;;;4992757;28;20045;-69
2023/03/31 11:49:14;;;;;;;4.30;1.30;;;17.40;98.20;;;;;;4982637;28;20041;-68
2023/03/31 11:52:24;;;;;;;1.70;1.33;;;17.30;96.90;;;;;;4992769;28;20030;-69
2023/03/31 11:55:14;;;;;;;2.28;1.10;;;17.30;98.10;;;;;;4989001;28;20045;-69
2023/03/31 11:58:04;;;;;;;1.65;1.02;;;17.40;97.70;;;;;;4992366;28;20049;-69
2023/03/31 12:01:17;;;;;;;1.75;1.00;;;17.40;98.00;;;;;;4977861;28;20042;-70
2023/03/31 12:03:49;;;;;;;3.58;1.55;;;17.40;98.80;;;;;;4949218;28;20053;-67
2023/03/31 12:06:20;;;;;;;3.25;1.45;;;17.50;99.60;;;;;;4986916;28;20049;-68
2023/03/31 12:09:18;;;;;;;3.15;1.70;;;17.50;99.00;;;;;;4973995;28;20596;-69
2023/03/31 12:11:56;;;;;;;3.47;1.77;;;17.50;98.50;;;;;;4988018;28;20053;-68
2023/03/31 12:14:47;;;;;;;2.95;2.00;;;17.50;98.30;;;;;;4988736;28;20495;-69
2023/03/31 12:17:17;;;;;;;5.03;3.40;;;17.50;97.50;;;;;;4986094;28;20345;-69
2023/03/31 12:20:05;;;;;;;8.60;4.90;;;17.50;97.20;;;;;;4987990;28;20041;-69
2023/03/31 12:22:38;;;;;;;5.90;3.30;;;17.50;97.40;;;;;;4987002;28;20112;-69
2023/03/31 12:25:05;;;;;;;7.47;3.90;;;17.50;96.30;;;;;;4991861;28;20037;-69
2023/03/31 12:27:42;;;;;;;5.72;4.88;;;17.60;97.40;;;;;;4996876;28;20042;-69
2023/03/31 12:30:26;;;;;;;6.75;3.55;;;17.60;97.30;;;;;;4991477;28;20384;-69
2023/03/31 12:32:53;;;;;;;6.50;2.72;;;17.60;97.10;;;;;;4994402;28;20537;-68
2023/03/31 12:35:36;;;;;;;5.22;4.72;;;17.70;97.10;;;;;;4991560;28;20040;-68
2023/03/31 12:38:05;;;;;;;3.60;2.45;;;17.70;97.20;;;;;;4994602;28;20518;-68
2023/03/31 12:41:03;;;;;;;5.60;3.97;;;17.80;97.00;;;;;;4995947;28;20185;-69
2023/03/31 12:43:47;;;;;;;6.43;5.72;;;17.90;97.20;;;;;;4976944;28;20033;-70
2023/03/31 12:46:17;;;;;;;1.88;1.27;;;18.00;97.10;;;;;;4985813;28;20842;-69
2023/03/31 12:49:24;;;;;;;5.03;4.53;;;18.10;95.80;;;;;;4983176;28;20120;-70
2023/03/31 12:52:13;;;;;;;4.65;4.07;;;18.20;96.60;;;;;;4957024;28;20038;-69
2023/03/31 12:55:00;;;;;;;6.32;5.78;;;18.40;96.70;;;;;;4991879;28;20070;-72
2023/03/31 12:57:26;;;;;;;2.67;1.63;;;18.40;95.70;;;;;;4992163;28;20130;-72
2023/03/31 13:00:09;;;;;;;1.50;1.10;;;18.60;93.70;;;;;;4989591;28;20030;-71
2023/03/31 13:02:35;;;;;;;3.22;0.80;;;18.40;93.40;;;;;;4996853;28;20538;-71
2023/03/31 13:05:39;;;;;;;2.33;0.95;;;18.40;94.80;;;;;;4984592;28;20037;-70
2023/03/31 13:08:07;;;;;;;2.55;0.82;;;18.30;95.10;;;;;;4966374;28;20060;-71